Time;durP1;ratioP1;P1;durP2;ratioP2;P2;SDS_P1;SDS_P2;PMS_P1;PMS_P2;Temp;Humidity;BMP_temperature;BMP_pressure;BME280_temperature;BME280_humidity;BME280_pressure;Samples;Min_cycle;Max_cycle;Signal;HPM_P1;HPM_P2
2022/09/22 00:01:01;;;;;;;5.03;4.35;;;;;;;7.59;100.00;100493.94;1860057;77;21575;-38
2022/09/22 00:03:34;;;;;;;4.70;3.77;;;;;;;7.68;100.00;100499.44;1860465;77;21460;-38
2022/09/22 00:06:10;;;;;;;9.88;5.03;;;;;;;7.80;100.00;100497.67;1859962;77;20892;-38
2022/09/22 00:08:42;;;;;;;6.97;4.17;;;;;;;7.86;100.00;100495.05;1860334;77;21133;-38
2022/09/22 00:11:18;;;;;;;5.42;4.83;;;;;;;7.86;100.00;100504.07;1860049;76;21457;-38
2022/09/22 00:14:00;;;;;;;5.50;4.60;;;;;;;7.84;100.00;100501.94;1841267;77;20919;-38
2022/09/22 00:16:32;;;;;;;5.67;4.22;;;;;;;7.79;100.00;100501.13;1860106;77;20920;-38
2022/09/22 00:18:59;;;;;;;4.90;4.45;;;;;;;7.75;100.00;100503.72;1860751;77;21393;-38
2022/09/22 00:21:26;;;;;;;5.75;4.50;;;;;;;7.72;100.00;100496.01;1860170;76;21928;-38
2022/09/22 00:23:53;;;;;;;9.28;4.58;;;;;;;7.68;100.00;100502.02;1860038;77;20943;-38
2022/09/22 00:26:22;;;;;;;4.60;4.20;;;;;;;7.62;100.00;100501.64;1841413;77;20950;-38
2022/09/22 00:28:50;;;;;;;7.67;4.33;;;;;;;7.60;100.00;100497.35;1860413;76;21410;-38
2022/09/22 00:31:20;;;;;;;5.30;4.40;;;;;;;7.57;100.00;100494.80;1860348;77;21017;-38
2022/09/22 00:33:47;;;;;;;13.65;4.95;;;;;;;7.58;100.00;100496.51;1841550;77;21090;-38
2022/09/22 00:36:14;;;;;;;8.13;4.22;;;;;;;7.55;100.00;100502.52;1860239;77;21441;-38
2022/09/22 00:38:41;;;;;;;6.92;4.90;;;;;;;7.55;100.00;100493.95;1860437;77;20916;-38
2022/09/22 00:41:18;;;;;;;4.75;4.30;;;;;;;7.54;100.00;100500.80;1860342;77;20919;-38
2022/09/22 00:43:50;;;;;;;4.42;4.03;;;;;;;7.57;100.00;100503.81;1829965;77;20868;-38
2022/09/22 00:46:24;;;;;;;4.92;4.10;;;;;;;7.59;100.00;100507.23;1860468;77;21076;-38
2022/09/22 00:48:58;;;;;;;4.60;4.20;;;;;;;7.59;100.00;100508.52;1860257;76;20983;-38
2022/09/22 00:51:29;;;;;;;4.70;4.30;;;;;;;7.58;100.00;100506.39;1860212;77;20993;-38
2022/09/22 00:53:56;;;;;;;4.72;3.98;;;;;;;7.57;100.00;100506.39;1860149;77;20998;-38
2022/09/22 00:56:30;;;;;;;5.28;4.45;;;;;;;7.56;100.00;100513.70;1860070;77;21373;-38
2022/09/22 00:59:04;;;;;;;9.90;4.42;;;;;;;7.54;100.00;100511.56;1860067;77;21189;-38
2022/09/22 01:01:35;;;;;;;4.58;4.12;;;;;;;7.57;100.00;100512.83;1860535;77;21473;-38
2022/09/22 01:04:01;;;;;;;4.55;4.22;;;;;;;7.60;100.00;100512.81;1860164;77;20916;-38
2022/09/22 01:06:28;;;;;;;3.98;3.67;;;;;;;7.63;100.00;100511.50;1860258;77;20967;-38
2022/09/22 01:08:55;;;;;;;4.10;3.77;;;;;;;7.70;100.00;100509.75;1860383;77;20919;-38
2022/09/22 01:11:24;;;;;;;10.80;3.90;;;;;;;7.72;100.00;100505.03;1860360;77;21222;-38
2022/09/22 01:14:16;;;;;;;6.92;4.17;;;;;;;7.72;100.00;100514.47;1860096;77;20923;-38
2022/09/22 01:16:49;;;;;;;4.35;3.75;;;;;;;7.74;100.00;100508.45;1860207;77;20923;-38
2022/09/22 01:20:09;;;;;;;4.90;4.05;;;;;;;7.76;100.00;100505.84;1827106;77;21433;-39
2022/09/22 01:23:17;;;;;;;5.75;4.37;;;;;;;7.76;100.00;100511.00;1841277;77;21036;-38
2022/09/22 01:26:02;;;;;;;5.33;4.17;;;;;;;7.73;100.00;100504.16;1860672;77;21774;-38
2022/09/22 01:29:00;;;;;;;4.58;4.03;;;;;;;7.70;100.00;100505.44;1833187;77;21394;-38
2022/09/22 01:31:38;;;;;;;9.78;4.00;;;;;;;7.64;100.00;100504.19;1860417;77;21489;-38
2022/09/22 01:34:22;;;;;;;5.00;3.83;;;;;;;7.56;100.00;100506.80;1860175;77;20884;-38
2022/09/22 01:37:10;;;;;;;5.22;4.03;;;;;;;7.47;100.00;100498.72;1860014;77;20946;-38
2022/09/22 01:39:47;;;;;;;3.90;3.42;;;;;;;7.38;100.00;100514.20;1860183;77;22056;-38
2022/09/22 01:42:30;;;;;;;4.15;3.75;;;;;;;7.28;100.00;100513.38;1860795;77;21531;-38
2022/09/22 01:45:16;;;;;;;4.08;3.72;;;;;;;7.24;100.00;100515.98;1860275;77;20876;-38
2022/09/22 01:47:49;;;;;;;7.33;3.87;;;;;;;7.19;100.00;100521.98;1860233;77;21453;-38
2022/09/22 01:50:30;;;;;;;3.75;3.45;;;;;;;7.14;100.00;100517.73;1860403;77;20927;-38
2022/09/22 01:53:00;;;;;;;5.58;3.70;;;;;;;7.09;100.00;100516.45;1860272;77;21214;-38
2022/09/22 01:55:31;;;;;;;4.45;4.05;;;;;;;7.04;100.00;100518.19;1860278;77;20958;-38
2022/09/22 01:58:06;;;;;;;6.47;4.20;;;;;;;7.01;100.00;100516.91;1860453;77;20880;-38
2022/09/22 02:00:34;;;;;;;3.87;3.65;;;;;;;7.00;100.00;100521.63;1860553;77;20962;-38
2022/09/22 02:03:09;;;;;;;3.47;3.27;;;;;;;6.98;100.00;100520.78;1860425;77;20967;-38
2022/09/22 02:05:48;;;;;;;2.47;2.22;;;;;;;6.97;100.00;100522.94;1860483;77;21188;-38
2022/09/22 02:08:23;;;;;;;3.27;3.02;;;;;;;6.94;100.00;100522.50;1859729;77;20852;-38
2022/09/22 02:10:50;;;;;;;3.37;3.08;;;;;;;6.89;100.00;100518.64;1854892;77;21532;-38
2022/09/22 02:13:17;;;;;;;3.15;2.85;;;;;;;6.84;100.00;100531.95;1841335;77;20907;-38
2022/09/22 02:16:02;;;;;;;5.62;3.90;;;;;;;6.79;100.00;100532.39;1860360;77;20828;-38
2022/09/22 02:18:44;;;;;;;6.60;4.00;;;;;;;6.74;100.00;100531.55;1860514;76;21251;-38
2022/09/22 02:21:12;;;;;;;4.75;4.35;;;;;;;6.74;100.00;100533.67;1858532;76;20962;-38
2022/09/22 02:23:38;;;;;;;3.90;3.50;;;;;;;6.79;100.00;100532.39;1860328;77;20951;-38
2022/09/22 02:26:05;;;;;;;3.77;3.37;;;;;;;6.86;100.00;100531.96;1854888;77;20916;-38
2022/09/22 02:28:36;;;;;;;3.47;3.25;;;;;;;6.86;100.00;100531.96;1860433;77;21477;-38
2022/09/22 02:31:04;;;;;;;6.03;4.33;;;;;;;6.86;100.00;100534.09;1860259;76;21132;-38
2022/09/22 02:33:33;;;;;;;4.70;4.17;;;;;;;6.87;100.00;100530.66;1860346;77;20904;-38
2022/09/22 02:36:12;;;;;;;5.47;4.80;;;;;;;6.90;100.00;100533.22;1860501;77;21464;-38
2022/09/22 02:39:00;;;;;;;6.42;4.95;;;;;;;6.95;100.00;100531.93;1843479;77;21022;-38
2022/09/22 02:41:35;;;;;;;4.95;4.55;;;;;;;7.00;100.00;100534.50;1860264;77;20962;-38
2022/09/22 02:44:22;;;;;;;5.30;4.80;;;;;;;7.08;100.00;100535.33;1855911;77;21239;-38
2022/09/22 02:47:01;;;;;;;5.78;4.90;;;;;;;7.15;100.00;100535.73;1827359;77;20960;-38
2022/09/22 02:49:29;;;;;;;6.67;5.00;;;;;;;7.24;100.00;100532.72;1860138;77;21348;-38
2022/09/22 02:51:56;;;;;;;13.40;5.40;;;;;;;7.32;100.00;100527.94;1860018;77;20864;-38
2022/09/22 02:54:23;;;;;;;6.70;4.97;;;;;;;7.41;100.00;100530.08;1860236;77;20912;-38
2022/09/22 02:56:49;;;;;;;5.20;4.78;;;;;;;7.44;100.00;100521.89;1859958;77;21408;-38
2022/09/22 02:59:16;;;;;;;5.30;4.80;;;;;;;7.46;100.00;100530.49;1858726;77;20962;-38
2022/09/22 03:03:39;;;;;;;11.95;5.65;;;;;;;7.53;100.00;100530.45;1816163;79;22647;-37
2022/09/22 03:06:06;;;;;;;9.05;5.65;;;;;;;7.51;100.00;100534.31;1789224;80;20900;-37
2022/09/22 03:08:32;;;;;;;8.03;5.55;;;;;;;7.53;100.00;100527.88;1784390;80;21273;-37
2022/09/22 03:10:59;;;;;;;6.17;5.53;;;;;;;7.56;100.00;100530.44;1789258;80;20924;-37
2022/09/22 03:13:26;;;;;;;6.83;5.58;;;;;;;7.57;100.00;100533.44;1789170;80;20943;-37
2022/09/22 03:15:53;;;;;;;14.55;5.80;;;;;;;7.60;100.00;100535.58;1789202;80;21473;-37
2022/09/22 03:18:20;;;;;;;13.88;5.45;;;;;;;7.63;100.00;100537.27;1789352;80;20876;-37
2022/09/22 03:20:46;;;;;;;13.60;5.65;;;;;;;7.67;100.00;100537.67;1773623;80;21239;-37
2022/09/22 03:23:13;;;;;;;18.25;5.12;;;;;;;7.70;100.00;100535.52;1789131;80;21507;-37
2022/09/22 03:25:40;;;;;;;15.15;5.25;;;;;;;7.71;100.00;100545.83;1789227;80;20983;-37
2022/09/22 03:28:07;;;;;;;19.77;5.42;;;;;;;7.72;100.00;100544.09;1789297;80;21466;-37
2022/09/22 03:30:36;;;;;;;27.17;5.00;;;;;;;7.71;100.00;100544.97;1789314;80;20975;-37
2022/09/22 03:33:04;;;;;;;9.70;4.70;;;;;;;7.73;100.00;100549.67;1789319;80;20944;-38
2022/09/22 03:35:30;;;;;;;19.55;4.90;;;;;;;7.72;100.00;100547.55;1789224;80;20916;-38
2022/09/22 03:37:57;;;;;;;20.25;4.92;;;;;;;7.73;100.00;100550.96;1789149;80;20892;-38
2022/09/22 03:40:24;;;;;;;5.40;4.95;;;;;;;7.72;100.00;100550.13;1789174;80;21433;-38
2022/09/22 03:42:50;;;;;;;31.75;5.28;;;;;;;7.72;100.00;100555.28;1789143;80;21026;-38
2022/09/22 03:45:17;;;;;;;19.12;4.60;;;;;;;7.72;100.00;100551.41;1785586;79;21167;-38
2022/09/22 03:47:45;;;;;;;6.67;5.00;;;;;;;7.75;100.00;100556.96;1784173;80;21482;-38
2022/09/22 03:50:13;;;;;;;6.12;4.85;;;;;;;7.78;100.00;100552.23;1784158;80;20881;-38
2022/09/22 03:52:41;;;;;;;7.22;5.03;;;;;;;7.79;100.00;100548.80;1784119;80;20975;-38
2022/09/22 03:55:09;;;;;;;11.95;5.30;;;;;;;7.84;100.00;100558.64;1784297;80;20904;-37
2022/09/22 03:57:36;;;;;;;5.20;4.87;;;;;;;7.84;100.00;100559.93;1758244;80;21812;-37
2022/09/22 04:00:04;;;;;;;12.18;5.47;;;;;;;7.84;100.00;100564.66;1784225;80;20896;-37
2022/09/22 04:02:32;;;;;;;13.13;5.72;;;;;;;7.84;100.00;100562.50;1777220;80;20964;-37
2022/09/22 04:04:59;;;;;;;18.75;5.85;;;;;;;7.87;100.00;100563.36;1770908;81;21470;-37
2022/09/22 04:07:26;;;;;;;15.83;5.95;;;;;;;7.89;100.00;100560.75;1770816;81;20976;-37
2022/09/22 04:09:53;;;;;;;7.25;6.62;;;;;;;7.91;100.00;100556.44;1770774;81;21241;-37
2022/09/22 04:12:20;;;;;;;7.78;5.65;;;;;;;7.95;100.00;100559.42;1770625;81;21455;-37
2022/09/22 04:14:48;;;;;;;6.83;6.22;;;;;;;7.98;100.00;100558.56;1770309;81;20984;-37
2022/09/22 04:17:15;;;;;;;6.15;5.70;;;;;;;8.02;100.00;100559.83;1770072;81;20980;-37
2022/09/22 04:19:43;;;;;;;12.35;6.30;;;;;;;8.08;100.00;100556.78;1751022;81;20976;-38
2022/09/22 04:22:10;;;;;;;10.90;5.97;;;;;;;8.11;100.00;100558.92;1770291;80;21200;-37
2022/09/22 04:24:37;;;;;;;7.28;5.50;;;;;;;8.12;100.00;100554.19;1770175;81;21000;-37
2022/09/22 04:27:05;;;;;;;9.98;6.75;;;;;;;8.14;100.00;100550.29;1770406;81;21521;-37
2022/09/22 04:29:32;;;;;;;14.03;6.22;;;;;;;8.14;100.00;100555.45;1770121;80;20964;-37
2022/09/22 04:31:58;;;;;;;13.35;6.22;;;;;;;8.17;100.00;100552.42;1770305;81;21044;-37
2022/09/22 04:34:25;;;;;;;6.35;5.87;;;;;;;8.20;100.00;100550.23;1770178;80;21144;-37
2022/09/22 04:36:51;;;;;;;8.90;5.45;;;;;;;8.20;100.00;100557.97;1770208;81;21501;-37
2022/09/22 04:39:18;;;;;;;14.18;5.40;;;;;;;8.19;100.00;100554.97;1770225;81;20857;-37
2022/09/22 04:41:45;;;;;;;7.17;5.83;;;;;;;8.20;100.00;100552.40;1769986;80;21483;-38
2022/09/22 04:44:12;;;;;;;6.17;5.67;;;;;;;8.24;100.00;100556.24;1770256;80;20961;-38
2022/09/22 04:46:39;;;;;;;7.00;5.70;;;;;;;8.24;100.00;100554.53;1770210;80;21135;-37
2022/09/22 04:49:05;;;;;;;7.92;5.60;;;;;;;8.26;100.00;100550.22;1770066;80;20991;-38
2022/09/22 04:51:32;;;;;;;18.40;5.42;;;;;;;8.29;100.00;100555.35;1750675;81;20945;-37
2022/09/22 04:53:59;;;;;;;9.98;5.90;;;;;;;8.32;100.00;100564.35;1770137;80;21391;-37
2022/09/22 04:56:26;;;;;;;9.70;5.10;;;;;;;8.31;100.00;100557.90;1770305;81;21497;-37
2022/09/22 04:58:53;;;;;;;5.40;4.92;;;;;;;8.38;100.00;100558.30;1770180;81;21114;-37
2022/09/22 05:01:19;;;;;;;6.17;5.53;;;;;;;8.45;100.00;100562.95;1770065;80;20869;-37
2022/09/22 05:03:46;;;;;;;8.23;4.70;;;;;;;8.52;100.00;100563.80;1768435;80;20866;-37
2022/09/22 05:06:12;;;;;;;10.03;4.62;;;;;;;8.54;100.00;100568.09;1768165;81;20972;-37
2022/09/22 05:08:41;;;;;;;9.20;5.22;;;;;;;8.61;100.00;100565.03;1768300;80;20862;-38
2022/09/22 05:11:08;;;;;;;5.75;5.35;;;;;;;8.63;100.00;100568.45;1755204;81;21258;-38
2022/09/22 05:13:39;;;;;;;7.55;5.33;;;;;;;8.63;100.00;100574.45;1768071;81;20984;-38
2022/09/22 05:16:07;;;;;;;7.08;5.10;;;;;;;8.71;100.00;100573.52;1768106;80;20937;-38
2022/09/22 05:18:34;;;;;;;6.22;4.75;;;;;;;8.73;100.00;100574.39;1768029;81;20890;-38
2022/09/22 05:21:01;;;;;;;4.70;4.42;;;;;;;8.72;100.00;100575.27;1768193;80;20940;-38
2022/09/22 05:23:29;;;;;;;6.75;5.15;;;;;;;8.70;100.00;100578.27;1768244;80;21079;-38
2022/09/22 05:25:55;;;;;;;16.15;5.85;;;;;;;8.75;100.00;100580.39;1768024;80;21008;-38
2022/09/22 05:28:23;;;;;;;12.80;6.45;;;;;;;8.77;100.00;100576.08;1768265;80;20933;-38
2022/09/22 05:30:50;;;;;;;14.07;6.83;;;;;;;8.86;100.00;100581.59;1768275;80;20936;-38
2022/09/22 05:33:17;;;;;;;10.28;7.10;;;;;;;8.98;100.00;100584.49;1768321;80;21040;-38
2022/09/22 05:35:43;;;;;;;9.48;7.70;;;;;;;9.09;100.00;100583.06;1768269;80;21071;-38
2022/09/22 05:38:11;;;;;;;11.97;9.33;;;;;;;9.23;100.00;100582.95;1768163;80;21477;-38
2022/09/22 05:40:38;;;;;;;11.63;8.85;;;;;;;9.34;100.00;100578.50;1768094;80;20956;-38
2022/09/22 05:43:04;;;;;;;9.78;8.28;;;;;;;9.43;100.00;100585.30;1742214;81;20980;-38
2022/09/22 05:45:31;;;;;;;9.53;8.35;;;;;;;9.46;100.00;100582.22;1768143;80;20945;-38
2022/09/22 05:47:58;;;;;;;9.50;7.78;;;;;;;9.52;100.00;100585.63;1768186;81;21279;-38
2022/09/22 05:50:25;;;;;;;11.00;8.30;;;;;;;9.53;100.00;100585.59;1768164;80;21031;-38
2022/09/22 05:53:07;;;;;;;12.75;7.72;;;;;;;9.63;100.00;100583.34;1768256;81;20968;-38
2022/09/22 05:55:34;;;;;;;10.18;8.03;;;;;;;9.76;100.00;100583.16;1768099;80;20937;-38
2022/09/22 05:58:01;;;;;;;14.28;8.95;;;;;;;9.78;100.00;100580.99;1768129;80;21008;-38
2022/09/22 06:00:28;;;;;;;8.95;7.80;;;;;;;9.87;100.00;100574.84;1768219;81;21136;-38
2022/09/22 06:02:55;;;;;;;8.78;7.15;;;;;;;9.97;100.00;100576.84;1768751;80;20941;-38
2022/09/22 06:05:22;;;;;;;8.03;7.22;;;;;;;9.99;100.00;100576.83;1770025;80;21232;-38
2022/09/22 06:08:02;;;;;;;11.73;8.43;;;;;;;9.92;100.00;100570.46;1770112;80;20854;-38
2022/09/22 06:10:30;;;;;;;8.38;7.50;;;;;;;9.94;100.00;100570.88;1770072;80;21510;-38
2022/09/22 06:13:00;;;;;;;9.68;7.83;;;;;;;9.96;100.00;100574.30;1769882;80;21027;-39
2022/09/22 06:15:27;;;;;;;14.95;8.45;;;;;;;10.01;100.00;100568.61;1769790;80;20928;-38
2022/09/22 06:17:55;;;;;;;9.40;7.40;;;;;;;10.19;100.00;100573.53;1769990;80;20952;-38
2022/09/22 06:20:22;;;;;;;13.05;8.35;;;;;;;10.38;100.00;100573.67;1770084;80;21664;-38
2022/09/22 06:22:49;;;;;;;9.68;7.87;;;;;;;10.51;100.00;100573.94;1769959;80;21637;-39
2022/09/22 06:25:15;;;;;;;9.23;7.60;;;;;;;10.62;100.00;100575.91;1770185;80;21964;-39
2022/09/22 06:27:42;;;;;;;8.53;6.40;;;;;;;10.69;100.00;100576.66;1769950;80;20988;-38
2022/09/22 06:30:12;;;;;;;11.30;5.10;;;;;;;10.75;100.00;100583.48;1770024;81;21371;-38
2022/09/22 06:32:39;;;;;;;5.45;5.03;;;;;;;10.70;100.00;100587.85;1770067;81;21006;-39
2022/09/22 06:35:07;;;;;;;8.18;5.37;;;;;;;10.60;100.00;100599.66;1769909;80;20984;-38
2022/09/22 06:37:37;;;;;;;7.33;5.00;;;;;;;10.63;100.00;100603.95;1750250;81;21179;-39
2022/09/22 06:40:07;;;;;;;5.67;4.80;;;;;;;10.60;100.00;100613.03;1769902;81;20924;-38
2022/09/22 06:42:34;;;;;;;5.50;5.00;;;;;;;10.65;100.00;100617.72;1769915;80;21450;-38
2022/09/22 06:45:03;;;;;;;5.17;4.78;;;;;;;10.72;100.00;100624.92;1770072;80;20948;-38
2022/09/22 06:47:31;;;;;;;5.80;5.20;;;;;;;10.80;100.00;100617.03;1770149;80;20976;-38
2022/09/22 06:50:00;;;;;;;6.30;4.78;;;;;;;10.86;100.00;100622.97;1770116;80;21074;-38
2022/09/22 06:52:27;;;;;;;5.20;4.78;;;;;;;10.88;100.00;100623.80;1769781;80;20973;-38
2022/09/22 06:54:59;;;;;;;7.08;4.75;;;;;;;11.05;100.00;100623.95;1770186;81;21438;-38
2022/09/22 06:57:26;;;;;;;5.47;4.97;;;;;;;11.23;100.00;100620.59;1769419;80;20980;-39
2022/09/22 06:59:51;;;;;;;6.20;5.70;;;;;;;11.33;100.00;100616.97;1769886;80;20920;-39
2022/09/22 07:02:18;;;;;;;8.90;5.15;;;;;;;11.36;100.00;100616.91;1770129;80;21078;-38
2022/09/22 07:04:47;;;;;;;6.47;5.05;;;;;;;11.44;100.00;100616.31;1769875;80;20830;-38
2022/09/22 07:07:13;;;;;;;4.70;4.35;;;;;;;11.34;100.00;100613.03;1769968;80;20893;-38
2022/09/22 07:09:41;;;;;;;6.35;4.35;;;;;;;11.38;100.00;100615.14;1769945;81;20929;-39
2022/09/22 07:12:07;;;;;;;4.80;4.40;;;;;;;11.53;100.00;100616.58;1770121;81;21473;-38
2022/09/22 07:14:34;;;;;;;4.60;4.30;;;;;;;11.71;100.00;100619.23;1769885;80;21033;-39
2022/09/22 07:17:01;;;;;;;8.18;4.87;;;;;;;11.81;100.00;100619.06;1770037;81;21615;-39
2022/09/22 07:19:27;;;;;;;5.10;4.47;;;;;;;11.89;100.00;100624.50;1769976;80;20972;-39
2022/09/22 07:21:54;;;;;;;4.55;4.25;;;;;;;12.03;100.00;100625.53;1769985;80;20992;-39
2022/09/22 07:24:40;;;;;;;5.80;5.30;;;;;;;12.23;100.00;100624.22;1770078;81;21004;-39
2022/09/22 07:27:09;;;;;;;6.37;4.60;;;;;;;12.35;100.00;100623.95;1769873;80;22338;-39
2022/09/22 07:29:36;;;;;;;5.83;5.25;;;;;;;12.54;100.00;100617.46;1769753;80;20928;-39
2022/09/22 07:32:04;;;;;;;7.37;4.97;;;;;;;12.72;100.00;100618.75;1770066;81;20889;-39
2022/09/22 07:34:31;;;;;;;4.80;4.37;;;;;;;12.76;100.00;100619.95;1750723;81;20886;-39
2022/09/22 07:36:58;;;;;;;3.83;3.58;;;;;;;12.76;100.00;100621.70;1770073;80;21043;-39
2022/09/22 07:39:25;;;;;;;4.30;4.00;;;;;;;12.64;100.00;100628.05;1770283;80;21117;-39
2022/09/22 07:41:52;;;;;;;3.98;3.70;;;;;;;12.62;100.00;100630.67;1769912;80;21538;-39
2022/09/22 07:46:50;;;;;;;5.35;4.03;;;;;;;12.76;100.00;100621.70;1734117;80;20922;-39
2022/09/22 07:49:18;;;;;;;4.08;3.77;;;;;;;12.85;100.00;100620.16;1770084;80;20945;-39
2022/09/22 07:51:45;;;;;;;6.87;3.85;;;;;;;12.92;100.00;100621.70;1770250;80;21089;-38
2022/09/22 07:54:12;;;;;;;5.85;4.20;;;;;;;12.91;100.00;100610.08;1770157;81;20968;-39
2022/09/22 07:56:42;;;;;;;7.55;4.37;;;;;;;12.90;100.00;100614.86;1770245;80;20929;-39
2022/09/22 07:59:14;;;;;;;7.83;6.50;;;;;;;12.96;100.00;100608.63;1770124;80;20960;-39
2022/09/22 08:01:46;;;;;;;32.90;20.92;;;;;;;13.16;100.00;100596.44;1770055;81;20917;-39
2022/09/22 08:04:21;;;;;;;6.47;4.65;;;;;;;13.51;100.00;100590.73;1770047;80;21505;-39
2022/09/22 08:06:50;;;;;;;14.60;8.55;;;;;;;13.79;100.00;100596.42;1769853;80;20838;-39
2022/09/22 08:09:18;;;;;;;11.60;7.90;;;;;;;14.04;100.00;100590.05;1770327;81;20854;-39
2022/09/22 08:11:47;;;;;;;4.78;4.30;;;;;;;14.30;100.00;100586.20;1770012;80;21019;-39
2022/09/22 08:14:16;;;;;;;4.50;4.12;;;;;;;14.42;100.00;100593.64;1770124;81;20937;-39
2022/09/22 08:16:44;;;;;;;4.53;4.12;;;;;;;14.51;100.00;100601.58;1770331;80;21236;-39
2022/09/22 08:19:12;;;;;;;14.15;8.83;;;;;;;14.71;100.00;100593.59;1770139;81;21020;-39
2022/09/22 08:21:43;;;;;;;4.80;4.40;;;;;;;14.91;100.00;100590.34;1770178;80;21463;-39
2022/09/22 08:24:12;;;;;;;18.48;11.93;;;;;;;15.02;100.00;100589.94;1770050;81;21059;-39
2022/09/22 08:26:43;;;;;;;4.78;4.37;;;;;;;15.22;100.00;100594.47;1770246;81;20905;-39
2022/09/22 08:29:10;;;;;;;4.10;3.80;;;;;;;15.45;100.00;100579.75;1770059;80;21019;-39
2022/09/22 08:31:40;;;;;;;4.37;3.75;;;;;;;15.54;100.00;100583.78;1769987;80;20885;-39
2022/09/22 08:34:07;;;;;;;4.10;3.70;;;;;;;15.30;100.00;100582.47;1769973;81;20932;-39
2022/09/22 08:36:36;;;;;;;4.83;3.83;;;;;;;15.22;100.00;100586.17;1769941;80;21008;-39
2022/09/22 08:39:03;;;;;;;3.92;3.58;;;;;;;15.13;100.00;100587.81;1770038;80;20999;-39
2022/09/22 08:42:18;;;;;;;5.45;4.67;;;;;;;15.16;100.00;100582.96;1744660;81;21214;-39
2022/09/22 08:45:06;;;;;;;19.27;10.48;;;;;;;15.40;100.00;100573.83;1707848;83;20952;-39
2022/09/22 08:53:22;;;;;;;16.10;9.33;;;;;;;16.61;99.57;100567.86;1769994;80;20957;-39
2022/09/22 08:55:54;;;;;;;4.30;3.90;;;;;;;16.69;96.43;100568.84;1770088;80;21089;-39
2022/09/22 08:58:27;;;;;;;4.12;3.70;;;;;;;16.69;94.75;100573.63;1769936;81;21027;-39
2022/09/22 09:00:59;;;;;;;7.10;3.40;;;;;;;16.32;91.02;100579.05;1770299;81;20999;-39
2022/09/22 09:03:48;;;;;;;6.70;4.15;;;;;;;15.84;92.92;100570.47;1765474;80;20944;-39
2022/09/22 09:06:42;;;;;;;4.08;3.50;;;;;;;15.41;95.86;100569.88;1769954;80;20933;-39
2022/09/22 09:09:27;;;;;;;5.08;3.62;;;;;;;15.04;98.54;100565.53;1767180;81;21225;-39
2022/09/22 09:12:19;;;;;;;4.22;3.80;;;;;;;15.00;100.00;100563.08;1770116;81;20980;-39
2022/09/22 09:15:10;;;;;;;4.22;3.83;;;;;;;15.13;100.00;100566.09;1766950;81;20988;-39
2022/09/22 09:17:37;;;;;;;8.23;4.20;;;;;;;15.05;100.00;100569.84;1769948;80;21185;-39
2022/09/22 09:20:18;;;;;;;10.38;4.00;;;;;;;14.94;100.00;100567.61;1770357;81;21510;-39
2022/09/22 09:22:54;;;;;;;6.37;4.05;;;;;;;14.78;100.00;100570.36;1770104;80;21549;-39
2022/09/22 09:25:39;;;;;;;5.33;3.60;;;;;;;14.69;100.00;100566.28;1770245;80;20992;-38
2022/09/22 09:28:19;;;;;;;6.87;3.65;;;;;;;14.57;99.98;100566.23;1770321;80;20952;-38
2022/09/22 09:30:51;;;;;;;4.15;3.62;;;;;;;14.44;100.00;100570.14;1769979;80;20972;-39
2022/09/22 09:33:27;;;;;;;5.20;3.62;;;;;;;14.31;100.00;100583.57;1770052;81;20933;-39
2022/09/22 09:35:53;;;;;;;3.80;3.50;;;;;;;14.29;99.91;100582.77;1770186;81;21130;-39
2022/09/22 09:38:28;;;;;;;6.60;3.17;;;;;;;14.21;100.00;100585.61;1769957;81;20850;-39
2022/09/22 09:41:10;;;;;;;3.85;3.22;;;;;;;14.25;100.00;100585.04;1769678;80;21031;-39
2022/09/22 09:43:36;;;;;;;4.62;3.35;;;;;;;14.32;100.00;100581.80;1768450;81;20980;-38
2022/09/22 09:46:53;;;;;;;5.62;3.02;;;;;;;14.39;100.00;100582.46;1770130;80;20949;-38
2022/09/22 09:49:20;;;;;;;4.30;3.40;;;;;;;14.51;100.00;100584.65;1770209;80;21206;-38
2022/09/22 09:51:56;;;;;;;4.25;3.35;;;;;;;14.65;100.00;100581.15;1770107;80;20873;-39
2022/09/22 09:54:22;;;;;;;3.90;3.00;;;;;;;14.66;100.00;100574.20;1770062;80;21011;-39
2022/09/22 09:57:12;;;;;;;5.75;2.30;;;;;;;14.73;100.00;100563.13;1769961;80;20933;-39
2022/09/22 10:03:01;;;;;;;3.08;2.60;;;;;;;14.94;100.00;100561.56;1770044;80;21763;-39
2022/09/22 10:05:29;;;;;;;2.90;2.67;;;;;;;15.28;100.00;100556.87;1770102;81;20885;-39
2022/09/22 10:08:00;;;;;;;3.35;2.22;;;;;;;15.72;97.95;100564.80;1770169;80;20948;-39
2022/09/22 10:10:36;;;;;;;4.10;2.58;;;;;;;15.92;91.80;100564.52;1770206;80;20937;-39
2022/09/22 10:13:08;;;;;;;6.15;2.02;;;;;;;16.00;92.22;100557.23;1769956;80;20913;-39
2022/09/22 10:15:39;;;;;;;3.45;2.17;;;;;;;16.30;88.62;100555.63;1770051;81;21160;-39
2022/09/22 10:18:28;;;;;;;2.15;2.05;;;;;;;16.49;86.46;100548.31;1769893;80;20925;-39
2022/09/22 10:21:06;;;;;;;2.05;1.95;;;;;;;16.82;88.82;100546.52;1770103;80;20983;-39
2022/09/22 10:23:33;;;;;;;4.22;2.15;;;;;;;17.28;84.00;100546.70;1764637;80;20992;-39
2022/09/22 10:26:29;;;;;;;1.92;1.80;;;;;;;17.66;82.38;100555.89;1770161;80;20929;-39
2022/09/22 10:29:21;;;;;;;2.50;1.98;;;;;;;17.85;79.64;100558.48;1770153;81;21778;-39
2022/09/22 10:32:14;;;;;;;1.90;1.80;;;;;;;18.08;79.24;100550.89;1769373;80;20980;-39
2022/09/22 10:34:49;;;;;;;8.88;2.10;;;;;;;18.23;77.01;100546.67;1770041;80;20933;-39
2022/09/22 10:37:20;;;;;;;2.45;2.10;;;;;;;18.26;76.24;100545.66;1770027;80;20992;-39
2022/09/22 10:39:49;;;;;;;2.00;1.60;;;;;;;18.40;76.56;100542.34;1769467;80;20929;-39
2022/09/22 10:42:27;;;;;;;2.05;1.85;;;;;;;18.60;75.12;100535.25;1770208;80;21025;-39
2022/09/22 10:44:56;;;;;;;4.62;1.70;;;;;;;18.77;72.08;100527.83;1769962;80;21015;-39
2022/09/22 10:47:31;;;;;;;2.42;1.55;;;;;;;18.84;72.16;100532.30;1750527;81;21027;-39
2022/09/22 10:50:30;;;;;;;3.70;1.72;;;;;;;19.04;71.70;100536.08;1770139;81;20893;-39
2022/09/22 10:53:10;;;;;;;5.53;1.67;;;;;;;19.29;71.06;100540.47;1769712;80;21487;-39
2022/09/22 10:55:58;;;;;;;2.62;1.60;;;;;;;19.51;68.39;100544.94;1770077;81;21353;-39
2022/09/22 10:58:45;;;;;;;7.97;1.37;;;;;;;19.45;66.27;100542.66;1738266;80;21491;-39
2022/09/22 11:01:32;;;;;;;5.67;1.30;;;;;;;19.44;65.64;100544.90;1770230;81;20893;-39
2022/09/22 11:04:40;;;;;;;2.47;1.30;;;;;;;19.33;68.68;100544.16;1769738;80;20948;-39
2022/09/22 11:13:39;;;;;;;3.47;1.17;;;;;;;19.16;66.74;100537.65;1770210;80;20957;-38
2022/09/22 11:16:30;;;;;;;1.15;1.15;;;;;;;19.35;64.82;100528.34;1770003;80;21537;-39
2022/09/22 11:19:20;;;;;;;2.12;1.17;;;;;;;19.03;61.85;100533.07;1769930;80;20905;-39
2022/09/22 11:22:32;;;;;;;1.47;1.37;;;;;;;18.83;64.35;100537.16;1758776;81;20969;-39
2022/09/22 11:25:08;;;;;;;6.45;1.15;;;;;;;18.63;64.08;100532.03;1770126;80;21099;-39
2022/09/22 11:27:55;;;;;;;1.62;0.78;;;;;;;18.48;65.17;100538.03;1770261;80;20936;-39
2022/09/22 11:30:22;;;;;;;7.90;1.30;;;;;;;18.57;62.66;100528.42;1770033;80;20897;-39
2022/09/22 11:33:07;;;;;;;2.35;1.17;;;;;;;18.75;61.50;100524.00;1770037;80;20924;-39
2022/09/22 11:35:59;;;;;;;1.30;1.20;;;;;;;18.56;61.81;100529.80;1770230;80;20964;-39
2022/09/22 11:39:08;;;;;;;7.97;1.30;;;;;;;18.66;63.90;100531.87;1770093;81;21035;-39
2022/09/22 11:42:01;;;;;;;7.55;1.10;;;;;;;18.84;61.62;100534.48;1770216;80;21419;-39
2022/09/22 11:44:38;;;;;;;3.55;1.57;;;;;;;18.71;60.39;100539.95;1769844;80;20881;-39
2022/09/22 11:47:32;;;;;;;3.90;1.20;;;;;;;18.55;60.99;100538.10;1770117;81;20932;-39
2022/09/22 11:50:25;;;;;;;2.60;1.30;;;;;;;18.43;61.81;100538.25;1758033;81;20952;-39
2022/09/22 11:53:19;;;;;;;4.87;1.45;;;;;;;18.43;61.96;100536.95;1770094;81;21248;-39
2022/09/22 11:56:27;;;;;;;3.72;1.20;;;;;;;18.42;60.91;100529.18;1770052;81;20976;-39
2022/09/22 11:58:54;;;;;;;1.82;1.30;;;;;;;18.50;64.74;100523.94;1769984;80;20909;-39
2022/09/22 12:01:28;;;;;;;1.52;1.17;;;;;;;18.59;62.25;100531.80;1750540;81;21000;-39
2022/09/22 12:04:28;;;;;;;0.80;0.80;;;;;;;18.56;59.48;100533.24;1770029;80;21363;-39
2022/09/22 12:06:56;;;;;;;4.72;1.00;;;;;;;18.27;60.17;100529.01;1766714;81;21048;-39
2022/09/22 12:09:41;;;;;;;1.00;1.00;;;;;;;18.01;62.79;100535.06;1770285;80;20999;-39